Time;durP1;ratioP1;P1;durP2;ratioP2;P2;SDS_P1;SDS_P2;PMS_P1;PMS_P2;Temp;Humidity;BMP_temperature;BMP_pressure;BME280_temperature;BME280_humidity;BME280_pressure;Samples;Min_cycle;Max_cycle;Signal;HPM_P1;HPM_P2
2022/11/04 00:01:20;;;;;;;;;;;20.40;69.10;;;;;;5037716;28;892;-69
2022/11/04 00:03:45;;;;;;;;;;;20.30;69.00;;;;;;5036629;28;839;-69
2022/11/04 00:06:10;;;;;;;;;;;20.40;69.10;;;;;;5039769;28;1382;-69
2022/11/04 00:08:36;;;;;;;;;;;20.40;69.10;;;;;;5037540;28;839;-69
2022/11/04 00:13:45;;;;;;;;;;;20.40;69.20;;;;;;5035788;28;1898;-69
2022/11/04 00:18:55;;;;;;;;;;;20.30;69.10;;;;;;5039374;28;793;-69
2022/11/04 00:29:33;;;;;;;;;;;20.30;69.20;;;;;;5034193;28;802;-69
2022/11/04 00:34:42;;;;;;;;;;;20.40;69.20;;;;;;5041430;28;839;-68
2022/11/04 00:37:08;;;;;;;;;;;20.40;69.30;;;;;;5039684;28;1327;-67
2022/11/04 00:39:33;;;;;;;;;;;20.30;69.20;;;;;;5040198;28;1592;-68
2022/11/04 00:41:58;;;;;;;;;;;20.40;69.30;;;;;;5040016;28;861;-68
2022/11/04 00:44:24;;;;;;;;;;;20.30;69.20;;;;;;5043228;28;789;-69
2022/11/04 00:46:49;;;;;;;;;;;20.30;69.20;;;;;;5039332;28;1355;-68
2022/11/04 00:49:15;;;;;;;;;;;20.30;69.30;;;;;;5038017;28;867;-69
2022/11/04 00:51:40;;;;;;;;;;;20.30;69.30;;;;;;5036998;28;1299;-69
2022/11/04 00:54:06;;;;;;;;;;;20.30;69.30;;;;;;5036578;28;1898;-67
2022/11/04 00:56:31;;;;;;;;;;;20.30;69.30;;;;;;5037484;28;1341;-68
2022/11/04 00:58:59;;;;;;;;;;;20.30;69.30;;;;;;5039347;28;1030;-69
2022/11/04 01:01:25;;;;;;;;;;;20.30;69.30;;;;;;5040888;28;1186;-69
2022/11/04 01:03:51;;;;;;;;;;;20.30;69.30;;;;;;5039009;28;1037;-69
2022/11/04 01:06:16;;;;;;;;;;;20.30;69.30;;;;;;5036550;28;1272;-69
2022/11/04 01:08:42;;;;;;;;;;;20.30;69.30;;;;;;5036280;28;943;-69
2022/11/04 01:11:07;;;;;;;;;;;20.30;69.40;;;;;;5039314;28;912;-67
2022/11/04 01:13:33;;;;;;;;;;;20.30;69.40;;;;;;5042214;28;1993;-67
2022/11/04 01:16:02;;;;;;;;;;;20.30;69.40;;;;;;5038997;28;1268;-67
2022/11/04 01:18:27;;;;;;;;;;;20.40;69.50;;;;;;5041270;28;891;-67
2022/11/04 01:20:52;;;;;;;;;;;20.30;69.40;;;;;;5036255;28;1066;-68
2022/11/04 01:23:18;;;;;;;;;;;20.30;69.40;;;;;;5041301;28;1057;-70
2022/11/04 01:25:43;;;;;;;;;;;20.30;69.40;;;;;;5040649;28;1403;-67
2022/11/04 01:28:09;;;;;;;;;;;20.30;69.40;;;;;;5037793;28;819;-66
2022/11/04 01:30:36;;;;;;;;;;;20.30;69.40;;;;;;5039582;28;851;-68
2022/11/04 01:33:02;;;;;;;;;;;20.30;69.40;;;;;;5020605;28;1959;-67
2022/11/04 01:35:27;;;;;;;;;;;20.30;69.40;;;;;;5039535;28;1249;-67
2022/11/04 01:37:52;;;;;;;;;;;20.30;69.40;;;;;;5037734;28;816;-68
2022/11/04 01:40:18;;;;;;;;;;;20.30;69.40;;;;;;5040924;28;796;-67
2022/11/04 01:42:43;;;;;;;;;;;20.30;69.40;;;;;;5037320;28;796;-67
2022/11/04 01:45:13;;;;;;;;;;;20.30;70.20;;;;;;5039230;28;1273;-68
2022/11/04 01:47:47;;;;;;;;;;;20.30;69.50;;;;;;5019876;28;1306;-67
2022/11/04 01:50:17;;;;;;;;;;;20.30;69.50;;;;;;5036563;28;812;-68
2022/11/04 01:52:44;;;;;;;;;;;20.30;69.50;;;;;;5038180;28;1914;-67
2022/11/04 01:55:14;;;;;;;;;;;20.30;69.50;;;;;;5040964;28;1299;-68
2022/11/04 01:57:40;;;;;;;;;;;20.30;69.50;;;;;;5022545;28;805;-69
2022/11/04 02:00:06;;;;;;;;;;;20.30;69.50;;;;;;5038393;28;871;-69
2022/11/04 02:02:31;;;;;;;;;;;20.30;69.50;;;;;;5042084;28;853;-67
2022/11/04 02:04:57;;;;;;;;;;;20.30;69.50;;;;;;5041454;28;1268;-68
2022/11/04 02:07:22;;;;;;;;;;;20.30;69.50;;;;;;5039688;28;826;-67
2022/11/04 02:09:48;;;;;;;;;;;20.30;69.60;;;;;;5040420;28;896;-67
2022/11/04 02:14:57;;;;;;;;;;;20.30;69.60;;;;;;5034760;28;1421;-67
2022/11/04 02:17:23;;;;;;;;;;;20.30;69.60;;;;;;5039677;28;930;-67
2022/11/04 02:20:07;;;;;;;;;;;20.30;69.60;;;;;;5043814;28;1034;-67
2022/11/04 02:22:40;;;;;;;;;;;20.30;69.60;;;;;;5040949;28;982;-68
2022/11/04 02:25:09;;;;;;;;;;;20.30;69.60;;;;;;5022925;28;1268;-67
2022/11/04 02:27:40;;;;;;;;;;;20.30;69.60;;;;;;5044917;28;951;-67
2022/11/04 02:30:06;;;;;;;;;;;20.30;69.60;;;;;;5043048;28;1276;-67
2022/11/04 02:32:32;;;;;;;;;;;20.30;69.60;;;;;;5041109;28;1914;-67
2022/11/04 02:34:57;;;;;;;;;;;20.30;69.60;;;;;;5039906;28;1300;-67
2022/11/04 02:37:32;;;;;;;;;;;20.30;69.60;;;;;;5042872;28;878;-66
2022/11/04 02:40:10;;;;;;;;;;;20.30;69.60;;;;;;5025329;28;915;-67
2022/11/04 02:42:41;;;;;;;;;;;20.30;69.70;;;;;;5025351;28;1089;-67
2022/11/04 02:45:14;;;;;;;;;;;20.30;69.60;;;;;;5042597;28;1378;-69
2022/11/04 02:47:41;;;;;;;;;;;20.30;69.70;;;;;;5038782;28;1413;-69
2022/11/04 02:50:19;;;;;;;;;;;20.30;69.70;;;;;;5022158;28;1085;-69
2022/11/04 02:52:50;;;;;;;;;;;20.30;69.70;;;;;;5021645;28;1971;-69
2022/11/04 02:55:16;;;;;;;;;;;20.30;69.70;;;;;;5022966;28;1485;-69
2022/11/04 02:57:42;;;;;;;;;;;20.30;69.70;;;;;;5020973;28;1070;-68
2022/11/04 03:00:08;;;;;;;;;;;20.30;69.70;;;;;;5043642;28;839;-69
2022/11/04 03:02:38;;;;;;;;;;;20.30;69.70;;;;;;5023299;28;904;-69
2022/11/04 03:05:04;;;;;;;;;;;20.30;69.70;;;;;;5024395;28;1260;-69
2022/11/04 03:07:31;;;;;;;;;;;20.30;69.70;;;;;;5041854;28;1197;-69
2022/11/04 03:09:58;;;;;;;;;;;20.30;69.80;;;;;;5041424;28;875;-68
2022/11/04 03:12:24;;;;;;;;;;;20.30;69.70;;;;;;5023753;28;1903;-69
2022/11/04 03:14:51;;;;;;;;;;;20.30;69.70;;;;;;5029430;28;1360;-67
2022/11/04 03:17:18;;;;;;;;;;;20.30;69.80;;;;;;5039444;28;942;-67
2022/11/04 03:19:46;;;;;;;;;;;20.30;69.80;;;;;;5019499;28;965;-69
2022/11/04 03:22:13;;;;;;;;;;;20.30;69.80;;;;;;5039330;28;846;-69
2022/11/04 03:24:39;;;;;;;;;;;20.30;69.80;;;;;;5039868;28;859;-69
2022/11/04 03:27:25;;;;;;;;;;;20.30;69.80;;;;;;5038419;28;1273;-69
2022/11/04 03:30:02;;;;;;;;;;;20.30;69.80;;;;;;5055123;28;1391;-69
2022/11/04 03:32:47;;;;;;;;;;;20.30;69.80;;;;;;5042179;28;1969;-69
2022/11/04 03:35:13;;;;;;;;;;;20.30;69.80;;;;;;5039016;28;1221;-68
2022/11/04 03:37:38;;;;;;;;;;;20.30;69.80;;;;;;5038730;28;955;-68
2022/11/04 03:40:04;;;;;;;;;;;20.30;69.90;;;;;;5035833;28;872;-68
2022/11/04 03:42:30;;;;;;;;;;;20.30;69.90;;;;;;5039946;28;848;-69
2022/11/04 03:44:55;;;;;;;;;;;20.30;69.80;;;;;;5038085;28;1275;-69
2022/11/04 03:47:23;;;;;;;;;;;20.20;69.80;;;;;;5034373;28;1281;-69
2022/11/04 03:49:48;;;;;;;;;;;20.30;69.90;;;;;;5039896;28;899;-69
2022/11/04 03:52:14;;;;;;;;;;;20.30;69.90;;;;;;5021015;28;848;-68
2022/11/04 03:54:39;;;;;;;;;;;20.30;69.90;;;;;;5037154;28;1960;-69
2022/11/04 03:57:24;;;;;;;;;;;20.30;69.90;;;;;;5022692;28;1205;-69
2022/11/04 03:59:55;;;;;;;;;;;20.30;69.90;;;;;;5039787;28;938;-69
2022/11/04 04:02:39;;;;;;;;;;;20.30;69.90;;;;;;5052399;28;1268;-68
2022/11/04 04:05:12;;;;;;;;;;;20.30;69.90;;;;;;5039326;28;1235;-69
2022/11/04 04:07:40;;;;;;;;;;;20.30;70.00;;;;;;5019601;28;1089;-69
2022/11/04 04:12:58;;;;;;;;;;;20.30;70.00;;;;;;5038669;28;1890;-69
2022/11/04 04:15:26;;;;;;;;;;;20.30;70.00;;;;;;5038885;28;1336;-70
2022/11/04 04:17:53;;;;;;;;;;;20.30;70.00;;;;;;5034075;28;1403;-69
2022/11/04 04:20:19;;;;;;;;;;;20.30;70.00;;;;;;5039642;28;804;-69
2022/11/04 04:22:49;;;;;;;;;;;20.30;70.00;;;;;;5035605;28;1022;-68
2022/11/04 04:27:59;;;;;;;;;;;20.20;70.00;;;;;;5039921;28;766;-68
2022/11/04 04:30:24;;;;;;;;;;;20.30;70.00;;;;;;5038429;28;843;-69
2022/11/04 04:32:51;;;;;;;;;;;20.20;69.90;;;;;;5037846;28;1993;-67
2022/11/04 04:46:36;;;;;;;;;;;20.30;70.00;;;;;;5039039;28;1320;-67
2022/11/04 04:49:02;;;;;;;;;;;20.20;70.00;;;;;;5025366;28;815;-68
2022/11/04 04:51:28;;;;;;;;;;;20.20;70.00;;;;;;5039348;28;1097;-68
2022/11/04 04:53:53;;;;;;;;;;;20.20;70.00;;;;;;5036796;28;1902;-69
2022/11/04 04:56:19;;;;;;;;;;;20.20;70.00;;;;;;5035519;28;1307;-68
2022/11/04 04:58:44;;;;;;;;;;;20.20;70.00;;;;;;5039305;28;843;-69
2022/11/04 05:01:10;;;;;;;;;;;20.20;70.00;;;;;;5038799;28;817;-69
2022/11/04 05:03:36;;;;;;;;;;;20.20;70.00;;;;;;5037436;28;915;-69
2022/11/04 05:06:01;;;;;;;;;;;20.20;70.00;;;;;;5036248;28;1275;-68
2022/11/04 05:08:27;;;;;;;;;;;20.20;70.00;;;;;;5020640;28;1170;-69
2022/11/04 05:10:52;;;;;;;;;;;20.20;70.00;;;;;;5043424;28;865;-69
2022/11/04 05:13:28;;;;;;;;;;;20.30;70.10;;;;;;5041915;28;1969;-68
2022/11/04 05:16:01;;;;;;;;;;;20.30;70.00;;;;;;5038746;28;1389;-68
2022/11/04 05:18:27;;;;;;;;;;;20.30;70.00;;;;;;5040394;28;849;-69
2022/11/04 05:20:52;;;;;;;;;;;20.30;69.90;;;;;;5037992;28;1010;-68
2022/11/04 05:23:18;;;;;;;;;;;20.30;69.90;;;;;;5036066;28;887;-67
2022/11/04 05:25:43;;;;;;;;;;;20.30;69.80;;;;;;5052803;28;1243;-69
2022/11/04 05:28:09;;;;;;;;;;;20.40;69.70;;;;;;5040136;28;859;-68
2022/11/04 05:30:34;;;;;;;;;;;20.40;69.60;;;;;;5037640;28;843;-68
2022/11/04 05:32:59;;;;;;;;;;;20.40;69.50;;;;;;5038451;28;1890;-69
2022/11/04 05:35:25;;;;;;;;;;;20.40;69.50;;;;;;5035978;28;1378;-68
2022/11/04 05:37:50;;;;;;;;;;;20.50;69.40;;;;;;5037455;28;1085;-68
2022/11/04 05:40:16;;;;;;;;;;;20.40;69.30;;;;;;5038545;28;910;-69
2022/11/04 05:42:41;;;;;;;;;;;20.50;69.20;;;;;;5039306;28;927;-68
2022/11/04 05:45:07;;;;;;;;;;;20.50;69.10;;;;;;5040903;28;1299;-68
2022/11/04 05:47:32;;;;;;;;;;;20.50;69.00;;;;;;5039725;28;1302;-67
2022/11/04 05:49:58;;;;;;;;;;;20.50;68.90;;;;;;5038460;28;1386;-68
2022/11/04 05:52:23;;;;;;;;;;;20.50;68.90;;;;;;5038361;28;978;-69
2022/11/04 05:54:49;;;;;;;;;;;20.50;68.90;;;;;;5019662;28;1907;-69
2022/11/04 05:57:14;;;;;;;;;;;20.60;68.90;;;;;;5044494;28;1013;-70
2022/11/04 05:59:39;;;;;;;;;;;20.60;68.90;;;;;;5044429;28;1050;-68
2022/11/04 06:02:06;;;;;;;;;;;20.60;68.80;;;;;;5041871;28;1112;-69
2022/11/04 06:04:31;;;;;;;;;;;20.60;68.80;;;;;;5024588;28;919;-72
2022/11/04 06:06:57;;;;;;;;;;;20.60;68.80;;;;;;5039364;28;1652;-70
2022/11/04 06:09:37;;;;;;;;;;;20.60;68.70;;;;;;5043236;28;903;-70
2022/11/04 06:12:16;;;;;;;;;;;20.70;68.70;;;;;;5043386;28;1002;-70
2022/11/04 06:14:42;;;;;;;;;;;20.70;68.60;;;;;;5040915;28;1973;-72
2022/11/04 06:17:08;;;;;;;;;;;20.80;68.60;;;;;;5040972;28;1287;-71
2022/11/04 06:19:33;;;;;;;;;;;20.80;68.50;;;;;;5022814;28;1427;-71
2022/11/04 06:21:59;;;;;;;;;;;20.90;68.40;;;;;;5052542;28;1010;-70
2022/11/04 06:24:24;;;;;;;;;;;21.00;68.30;;;;;;5035774;28;1239;-71
2022/11/04 06:26:49;;;;;;;;;;;21.10;68.10;;;;;;5041651;28;1245;-72
2022/11/04 06:29:15;;;;;;;;;;;21.20;67.80;;;;;;5038193;28;994;-71
2022/11/04 06:31:40;;;;;;;;;;;21.30;67.60;;;;;;5038447;28;1375;-69
2022/11/04 06:34:06;;;;;;;;;;;21.40;67.30;;;;;;5033107;28;4644;-68
2022/11/04 06:36:31;;;;;;;;;;;21.50;67.00;;;;;;5041618;28;1271;-70
2022/11/04 06:38:57;;;;;;;;;;;21.60;66.90;;;;;;5037686;28;907;-68
2022/11/04 06:41:22;;;;;;;;;;;21.60;66.50;;;;;;5039306;28;966;-70
2022/11/04 06:43:47;;;;;;;;;;;21.70;66.30;;;;;;5037438;28;812;-70
2022/11/04 06:46:32;;;;;;;;;;;21.80;66.10;;;;;;5041503;28;1321;-67
2022/11/04 06:48:57;;;;;;;;;;;21.80;65.80;;;;;;5054445;28;1497;-69
2022/11/04 06:51:23;;;;;;;;;;;21.90;65.70;;;;;;5041606;28;800;-71
2022/11/04 06:53:49;;;;;;;;;;;21.90;65.50;;;;;;5037733;28;1910;-70
2022/11/04 06:56:15;;;;;;;;;;;22.00;65.40;;;;;;5019953;28;1370;-71
2022/11/04 06:58:40;;;;;;;;;;;22.00;65.20;;;;;;5039239;28;899;-71
2022/11/04 07:01:06;;;;;;;;;;;22.10;65.10;;;;;;5052599;28;844;-72
2022/11/04 07:03:31;;;;;;;;;;;22.10;65.00;;;;;;5041898;28;941;-72
2022/11/04 07:05:56;;;;;;;;;;;22.10;64.90;;;;;;5040668;28;1358;-72
2022/11/04 07:08:22;;;;;;;;;;;22.10;64.90;;;;;;5042359;28;764;-69
2022/11/04 07:10:47;;;;;;;;;;;22.10;64.90;;;;;;5042025;28;788;-70
2022/11/04 07:13:13;;;;;;;;;;;22.10;64.90;;;;;;5037584;28;1886;-69
2022/11/04 07:15:39;;;;;;;;;;;22.10;65.00;;;;;;5041492;28;1350;-70
2022/11/04 07:18:05;;;;;;;;;;;22.10;65.00;;;;;;5037977;28;822;-69
2022/11/04 07:20:31;;;;;;;;;;;22.10;65.00;;;;;;5037215;28;838;-72
2022/11/04 07:22:57;;;;;;;;;;;22.10;65.00;;;;;;5039874;28;1018;-69
2022/11/04 07:25:22;;;;;;;;;;;22.10;65.00;;;;;;5038795;28;1325;-69
2022/11/04 07:27:48;;;;;;;;;;;22.10;65.10;;;;;;5040086;28;789;-70
2022/11/04 07:30:13;;;;;;;;;;;22.10;65.20;;;;;;5034823;28;896;-69
2022/11/04 07:32:39;;;;;;;;;;;22.10;65.20;;;;;;5038395;28;1941;-68
2022/11/04 07:35:04;;;;;;;;;;;22.00;65.10;;;;;;5038459;28;1256;-69
2022/11/04 07:37:30;;;;;;;;;;;22.00;65.10;;;;;;5039182;28;816;-68
2022/11/04 07:39:55;;;;;;;;;;;22.00;65.20;;;;;;5040218;28;843;-67
2022/11/04 07:42:21;;;;;;;;;;;22.00;65.20;;;;;;5036101;28;1702;-69
2022/11/04 07:44:46;;;;;;;;;;;22.00;65.30;;;;;;5038018;28;1188;-70
2022/11/04 07:47:12;;;;;;;;;;;22.00;65.30;;;;;;5038508;28;1220;-70
2022/11/04 07:49:37;;;;;;;;;;;22.00;65.40;;;;;;5036777;28;859;-69
2022/11/04 07:52:03;;;;;;;;;;;21.90;65.40;;;;;;5040707;28;863;-71
2022/11/04 07:54:28;;;;;;;;;;;21.90;65.40;;;;;;5041649;28;1979;-70
2022/11/04 07:56:53;;;;;;;;;;;21.90;65.50;;;;;;5039565;28;1344;-69
2022/11/04 07:59:19;;;;;;;;;;;21.90;65.60;;;;;;5040578;28;1287;-70
2022/11/04 08:01:44;;;;;;;;;;;21.90;65.60;;;;;;5044712;28;1427;-71
2022/11/04 08:04:10;;;;;;;;;;;21.90;66.10;;;;;;5039973;28;1301;-70
2022/11/04 08:06:35;;;;;;;;;;;21.80;66.50;;;;;;5042799;28;1369;-71
2022/11/04 08:09:01;;;;;;;;;;;21.80;66.90;;;;;;5039110;28;879;-71
2022/11/04 08:11:27;;;;;;;;;;;21.80;67.00;;;;;;5038933;28;1368;-70
2022/11/04 08:13:53;;;;;;;;;;;21.80;67.50;;;;;;5035355;28;1975;-70
2022/11/04 08:16:19;;;;;;;;;;;21.80;67.40;;;;;;5021206;28;1283;-71
2022/11/04 08:18:45;;;;;;;;;;;21.80;67.60;;;;;;5021468;28;970;-71
2022/11/04 08:21:10;;;;;;;;;;;21.70;67.70;;;;;;5039211;28;820;-71
2022/11/04 08:23:36;;;;;;;;;;;21.70;67.80;;;;;;5018713;28;1030;-71
2022/11/04 08:26:05;;;;;;;;;;;21.70;68.00;;;;;;5019458;28;1336;-71
2022/11/04 08:28:31;;;;;;;;;;;21.70;68.10;;;;;;5039722;28;832;-70
2022/11/04 08:30:58;;;;;;;;;;;21.70;68.30;;;;;;5042688;28;785;-71
2022/11/04 08:33:24;;;;;;;;;;;21.70;68.50;;;;;;5041041;28;1906;-70
2022/11/04 08:35:49;;;;;;;;;;;21.70;68.70;;;;;;5016999;28;1326;-71
2022/11/04 08:38:15;;;;;;;;;;;21.70;68.80;;;;;;5034611;28;912;-71
2022/11/04 08:40:40;;;;;;;;;;;21.70;69.00;;;;;;5041424;28;935;-71
2022/11/04 08:43:07;;;;;;;;;;;21.70;69.30;;;;;;5036555;28;850;-70
2022/11/04 08:45:32;;;;;;;;;;;21.70;69.30;;;;;;5036379;28;1501;-71
2022/11/04 08:47:58;;;;;;;;;;;21.60;69.30;;;;;;5040285;28;1349;-71
2022/11/04 08:50:26;;;;;;;;;;;21.60;69.30;;;;;;5037002;28;830;-71
2022/11/04 08:52:54;;;;;;;;;;;21.60;69.40;;;;;;5038163;28;1977;-71
2022/11/04 08:55:20;;;;;;;;;;;21.60;69.50;;;;;;5035445;28;1265;-69
2022/11/04 08:57:45;;;;;;;;;;;21.60;69.60;;;;;;5038343;28;938;-71
2022/11/04 09:00:11;;;;;;;;;;;21.60;69.60;;;;;;5044016;28;1060;-69
2022/11/04 09:02:36;;;;;;;;;;;21.60;69.60;;;;;;5037157;28;1069;-71
2022/11/04 09:05:02;;;;;;;;;;;21.60;69.60;;;;;;5038497;28;1364;-71
2022/11/04 09:07:27;;;;;;;;;;;21.60;69.60;;;;;;5036046;28;816;-70
2022/11/04 09:09:53;;;;;;;;;;;21.60;69.60;;;;;;5038209;28;818;-70
2022/11/04 09:12:19;;;;;;;;;;;21.60;69.60;;;;;;5036551;28;898;-71
2022/11/04 09:14:44;;;;;;;;;;;21.60;69.60;;;;;;5018029;28;1902;-71
2022/11/04 09:17:10;;;;;;;;;;;21.60;69.70;;;;;;5036146;28;1408;-71
2022/11/04 09:19:35;;;;;;;;;;;21.60;69.70;;;;;;5034522;28;915;-70
2022/11/04 09:22:01;;;;;;;;;;;21.60;69.70;;;;;;5035626;28;1040;-71
2022/11/04 09:24:26;;;;;;;;;;;21.60;69.80;;;;;;5035893;28;935;-71
2022/11/04 09:26:51;;;;;;;;;;;21.60;69.80;;;;;;5038198;28;1263;-70
2022/11/04 09:29:17;;;;;;;;;;;21.60;70.00;;;;;;5038728;28;875;-71
2022/11/04 09:31:42;;;;;;;;;;;21.60;70.00;;;;;;5036103;28;1085;-70
2022/11/04 09:34:08;;;;;;;;;;;21.60;70.10;;;;;;5037488;28;1906;-70
2022/11/04 09:36:33;;;;;;;;;;;21.60;70.00;;;;;;5037523;28;1343;-70
2022/11/04 09:38:59;;;;;;;;;;;21.60;70.10;;;;;;5040925;28;792;-71
2022/11/04 09:41:24;;;;;;;;;;;21.60;70.10;;;;;;5040659;28;824;-70
2022/11/04 09:43:56;;;;;;;;;;;21.60;70.10;;;;;;5035095;28;875;-70
2022/11/04 09:46:22;;;;;;;;;;;21.60;70.30;;;;;;5025633;28;1284;-70
2022/11/04 09:48:48;;;;;;;;;;;21.60;70.30;;;;;;5035561;28;874;-70
2022/11/04 09:51:13;;;;;;;;;;;21.50;70.20;;;;;;5020196;28;1038;-70
2022/11/04 09:53:45;;;;;;;;;;;21.50;70.30;;;;;;5033309;28;1910;-69
2022/11/04 09:56:13;;;;;;;;;;;21.50;70.30;;;;;;5035136;28;1244;-69
2022/11/04 09:58:39;;;;;;;;;;;21.50;70.30;;;;;;5029508;28;1861;-70
2022/11/04 10:01:12;;;;;;;;;;;21.50;71.10;;;;;;5037332;28;870;-69
2022/11/04 10:03:40;;;;;;;;;;;21.50;70.30;;;;;;5034762;28;1054;-70
2022/11/04 10:06:05;;;;;;;;;;;21.50;70.40;;;;;;5032421;28;1336;-70
2022/11/04 10:08:44;;;;;;;;;;;21.50;70.40;;;;;;5036582;28;986;-70
2022/11/04 10:11:12;;;;;;;;;;;21.50;70.40;;;;;;5020038;28;824;-70
2022/11/04 10:13:46;;;;;;;;;;;21.50;70.40;;;;;;5020221;28;1934;-69
2022/11/04 10:16:44;;;;;;;;;;;21.50;70.50;;;;;;5035761;28;1240;-70
2022/11/04 10:19:22;;;;;;;;;;;21.50;70.60;;;;;;5003847;28;1202;-69
2022/11/04 10:22:03;;;;;;;;;;;21.50;70.40;;;;;;5016515;28;873;-68
2022/11/04 10:24:45;;;;;;;;;;;21.50;70.60;;;;;;5035688;28;842;-69
2022/11/04 10:27:16;;;;;;;;;;;21.50;70.60;;;;;;5016990;28;1266;-68
2022/11/04 10:29:42;;;;;;;;;;;21.50;70.60;;;;;;5018811;28;900;-68
2022/11/04 10:32:16;;;;;;;;;;;21.50;70.60;;;;;;5039177;28;1374;-68
2022/11/04 10:35:00;;;;;;;;;;;21.40;70.70;;;;;;5017933;28;1949;-69
2022/11/04 10:37:26;;;;;;;;;;;21.50;70.70;;;;;;5037498;28;1001;-69
2022/11/04 10:39:51;;;;;;;;;;;21.40;70.80;;;;;;5035318;28;886;-68
2022/11/04 10:42:18;;;;;;;;;;;21.40;70.80;;;;;;5024189;28;1022;-69
2022/11/04 10:44:43;;;;;;;;;;;21.40;70.80;;;;;;5055763;28;2122;-68
2022/11/04 10:47:17;;;;;;;;;;;21.40;70.80;;;;;;5043733;28;2305;-69
2022/11/04 10:49:55;;;;;;;;;;;21.40;70.90;;;;;;5037956;28;1345;-68
2022/11/04 10:52:20;;;;;;;;;;;21.40;70.90;;;;;;5038486;28;1225;-68
2022/11/04 10:54:47;;;;;;;;;;;21.40;71.10;;;;;;5041751;28;1902;-69
2022/11/04 10:57:15;;;;;;;;;;;21.40;71.10;;;;;;5040734;28;1251;-69
2022/11/04 10:59:49;;;;;;;;;;;21.40;71.60;;;;;;5057405;28;1362;-69
2022/11/04 11:02:14;;;;;;;;;;;21.50;72.00;;;;;;5024347;28;860;-69
2022/11/04 11:04:40;;;;;;;;;;;21.40;72.00;;;;;;5054567;28;1251;-69
2022/11/04 11:07:09;;;;;;;;;;;21.40;72.20;;;;;;5040655;28;1290;-69
2022/11/04 11:09:35;;;;;;;;;;;21.40;72.20;;;;;;5040910;28;839;-69
2022/11/04 11:12:02;;;;;;;;;;;21.40;72.00;;;;;;5023015;28;944;-69
2022/11/04 11:14:27;;;;;;;;;;;21.40;72.30;;;;;;5023137;28;1922;-69
2022/11/04 11:16:53;;;;;;;;;;;21.40;72.10;;;;;;5036179;28;1261;-69
2022/11/04 11:19:19;;;;;;;;;;;21.50;72.10;;;;;;5038453;28;1486;-69
2022/11/04 11:21:48;;;;;;;;;;;21.40;72.00;;;;;;5041273;28;904;-69
2022/11/04 11:24:16;;;;;;;;;;;21.50;71.90;;;;;;5026209;28;902;-69
2022/11/04 11:26:47;;;;;;;;;;;21.50;71.70;;;;;;5020088;28;1280;-69
2022/11/04 11:29:15;;;;;;;;;;;21.40;71.70;;;;;;5057699;28;1192;-69
2022/11/04 11:31:40;;;;;;;;;;;21.50;71.70;;;;;;5022351;28;1440;-69
2022/11/04 11:34:11;;;;;;;;;;;21.40;71.60;;;;;;5038807;28;1902;-69
2022/11/04 11:36:37;;;;;;;;;;;21.40;71.60;;;;;;5023929;28;1312;-69
2022/11/04 11:39:04;;;;;;;;;;;21.40;71.70;;;;;;5040163;28;832;-69
2022/11/04 11:41:31;;;;;;;;;;;21.40;71.70;;;;;;5024166;28;888;-69
2022/11/04 11:44:00;;;;;;;;;;;21.40;71.70;;;;;;5021640;28;933;-69
2022/11/04 11:46:29;;;;;;;;;;;21.40;71.70;;;;;;5026876;28;1269;-69
2022/11/04 11:49:01;;;;;;;;;;;21.40;71.80;;;;;;5023861;28;1039;-69
2022/11/04 11:51:28;;;;;;;;;;;21.40;71.80;;;;;;5022773;28;959;-69
2022/11/04 11:54:01;;;;;;;;;;;21.30;72.60;;;;;;5019570;28;1965;-69
2022/11/04 11:56:31;;;;;;;;;;;21.40;71.90;;;;;;5033644;28;2261;-69
2022/11/04 11:59:08;;;;;;;;;;;21.30;71.80;;;;;;5018098;28;926;-69
2022/11/04 12:01:34;;;;;;;;;;;21.40;72.10;;;;;;5020769;28;856;-69
2022/11/04 12:04:00;;;;;;;;;;;21.40;71.90;;;;;;5039157;28;1120;-70
2022/11/04 12:06:46;;;;;;;;;;;21.30;71.80;;;;;;5039924;28;1247;-69
2022/11/04 12:09:15;;;;;;;;;;;21.30;71.90;;;;;;5057139;28;1164;-70
2022/11/04 12:11:56;;;;;;;;;;;21.30;71.80;;;;;;5040528;28;884;-69
2022/11/04 12:14:31;;;;;;;;;;;21.30;71.90;;;;;;5038881;28;1965;-69
2022/11/04 12:16:56;;;;;;;;;;;21.30;71.90;;;;;;5036744;28;1269;-69
2022/11/04 12:19:41;;;;;;;;;;;21.30;71.90;;;;;;5037857;28;816;-70
2022/11/04 12:22:11;;;;;;;;;;;21.30;72.10;;;;;;5038048;28;848;-70
2022/11/04 12:24:39;;;;;;;;;;;21.30;72.10;;;;;;5022877;28;1109;-69
2022/11/04 12:27:11;;;;;;;;;;;21.30;72.20;;;;;;5022261;28;1259;-69
2022/11/04 12:29:44;;;;;;;;;;;21.30;72.40;;;;;;5021309;28;841;-69
2022/11/04 12:32:16;;;;;;;;;;;21.30;72.60;;;;;;5020886;28;1199;-69
2022/11/04 12:34:44;;;;;;;;;;;21.30;72.90;;;;;;5054363;28;1959;-69
2022/11/04 12:37:13;;;;;;;;;;;21.30;73.60;;;;;;5038667;28;1234;-69
2022/11/04 12:39:46;;;;;;;;;;;21.40;73.60;;;;;;5022567;28;837;-69
2022/11/04 12:42:20;;;;;;;;;;;21.30;73.70;;;;;;5004104;28;1150;-71
2022/11/04 12:44:57;;;;;;;;;;;21.40;73.80;;;;;;5020828;28;1799;-69
2022/11/04 12:47:25;;;;;;;;;;;21.40;73.70;;;;;;5023360;28;1401;-70
2022/11/04 12:49:54;;;;;;;;;;;21.40;73.70;;;;;;5037376;28;1045;-71
2022/11/04 12:52:30;;;;;;;;;;;21.40;73.70;;;;;;5020797;28;969;-70
2022/11/04 12:55:10;;;;;;;;;;;21.40;73.60;;;;;;5021592;28;1906;-70
2022/11/04 12:57:45;;;;;;;;;;;21.30;73.60;;;;;;5039826;28;1002;-70
2022/11/04 13:00:14;;;;;;;;;;;21.30;73.40;;;;;;5039207;28;865;-69
2022/11/04 13:02:42;;;;;;;;;;;21.30;73.50;;;;;;5020799;28;807;-70
2022/11/04 13:05:16;;;;;;;;;;;21.30;73.70;;;;;;5034976;28;1292;-67
2022/11/04 13:07:43;;;;;;;;;;;21.30;72.00;;;;;;5024161;28;942;-67
2022/11/04 13:10:20;;;;;;;;;;;21.30;68.40;;;;;;5033649;28;848;-67
2022/11/04 13:12:45;;;;;;;;;;;21.20;66.50;;;;;;5019525;28;1955;-67
2022/11/04 13:15:11;;;;;;;;;;;21.10;65.70;;;;;;5037349;28;1361;-67
2022/11/04 13:17:38;;;;;;;;;;;21.00;65.10;;;;;;5037638;28;954;-68
2022/11/04 13:20:13;;;;;;;;;;;21.00;64.90;;;;;;5019014;28;1586;-68
2022/11/04 13:22:38;;;;;;;;;;;21.00;64.50;;;;;;5038967;28;2063;-68
2022/11/04 13:25:05;;;;;;;;;;;20.90;64.20;;;;;;5037466;28;1320;-67
2022/11/04 13:27:37;;;;;;;;;;;20.90;63.90;;;;;;5041492;28;1470;-68
2022/11/04 13:30:03;;;;;;;;;;;20.80;63.40;;;;;;5023271;28;1300;-68
2022/11/04 13:32:30;;;;;;;;;;;20.80;63.20;;;;;;5039305;28;1253;-68
2022/11/04 13:35:02;;;;;;;;;;;20.80;62.80;;;;;;5018946;28;1918;-68
2022/11/04 13:37:32;;;;;;;;;;;20.70;62.50;;;;;;5037803;28;937;-68
2022/11/04 13:39:58;;;;;;;;;;;20.70;62.10;;;;;;5020059;28;1262;-68
2022/11/04 13:42:27;;;;;;;;;;;20.70;61.80;;;;;;5029104;28;2609;-68
2022/11/04 13:44:55;;;;;;;;;;;20.60;61.60;;;;;;5037897;28;1436;-68
2022/11/04 13:47:23;;;;;;;;;;;20.60;61.30;;;;;;5025732;28;1263;-69
2022/11/04 13:49:54;;;;;;;;;;;20.60;61.20;;;;;;5041323;28;1363;-68
2022/11/04 13:52:19;;;;;;;;;;;20.60;61.10;;;;;;5022341;28;904;-69
2022/11/04 13:54:45;;;;;;;;;;;20.50;60.90;;;;;;5036592;28;1910;-68
2022/11/04 13:57:17;;;;;;;;;;;20.50;60.90;;;;;;5020333;28;2123;-68
2022/11/04 14:00:01;;;;;;;;;;;20.50;60.80;;;;;;5039940;28;1365;-68
2022/11/04 14:02:40;;;;;;;;;;;20.50;60.60;;;;;;5039234;28;1928;-69
2022/11/04 14:05:24;;;;;;;;;;;20.40;60.50;;;;;;5035320;28;1445;-68
2022/11/04 14:08:01;;;;;;;;;;;20.50;60.70;;;;;;5035156;28;1240;-69
2022/11/04 14:10:57;;;;;;;;;;;20.40;60.50;;;;;;5035732;28;962;-68
2022/11/04 14:13:40;;;;;;;;;;;20.40;60.40;;;;;;5037669;28;1953;-69
2022/11/04 14:16:08;;;;;;;;;;;20.40;60.30;;;;;;5040135;28;1279;-68
2022/11/04 14:18:34;;;;;;;;;;;20.40;61.30;;;;;;5025071;28;1248;-69
2022/11/04 14:21:09;;;;;;;;;;;20.40;62.00;;;;;;5039175;28;1362;-68
2022/11/04 14:23:35;;;;;;;;;;;20.40;62.40;;;;;;5022346;28;920;-69
2022/11/04 14:26:02;;;;;;;;;;;20.40;62.70;;;;;;5024431;28;1358;-68
2022/11/04 14:28:28;;;;;;;;;;;20.40;62.90;;;;;;5039496;28;1009;-69
2022/11/04 14:30:54;;;;;;;;;;;20.40;62.50;;;;;;5041394;28;808;-68
2022/11/04 14:33:32;;;;;;;;;;;20.40;62.50;;;;;;5041704;28;1894;-68
2022/11/04 14:36:13;;;;;;;;;;;20.40;62.60;;;;;;5042556;28;1395;-69
2022/11/04 14:38:38;;;;;;;;;;;20.30;62.60;;;;;;5046604;28;1352;-69
2022/11/04 14:41:12;;;;;;;;;;;20.30;62.50;;;;;;5041452;28;1597;-68
2022/11/04 14:43:37;;;;;;;;;;;20.30;62.60;;;;;;5025146;28;2123;-68
2022/11/04 14:46:03;;;;;;;;;;;20.30;62.40;;;;;;5024987;28;1444;-68
2022/11/04 14:48:28;;;;;;;;;;;20.30;62.50;;;;;;5041479;28;1413;-68
2022/11/04 14:50:54;;;;;;;;;;;20.30;62.50;;;;;;5040070;28;1543;-70
2022/11/04 14:53:30;;;;;;;;;;;20.30;61.70;;;;;;5042790;28;1906;-71
2022/11/04 14:56:06;;;;;;;;;;;20.30;61.50;;;;;;5047096;28;1388;-69
2022/11/04 14:58:31;;;;;;;;;;;20.30;61.50;;;;;;5039518;28;1294;-69
2022/11/04 15:01:02;;;;;;;;;;;20.20;61.60;;;;;;5042272;28;1208;-69
2022/11/04 15:03:37;;;;;;;;;;;20.30;61.80;;;;;;5037741;28;1309;-70
2022/11/04 15:06:03;;;;;;;;;;;20.20;62.10;;;;;;5020308;28;1634;-69
2022/11/04 15:08:33;;;;;;;;;;;20.30;62.30;;;;;;5023480;28;1054;-70
2022/11/04 15:11:05;;;;;;;;;;;20.30;62.60;;;;;;5022453;28;874;-71
2022/11/04 15:13:34;;;;;;;;;;;20.30;62.80;;;;;;5039740;28;1890;-69
2022/11/04 15:15:59;;;;;;;;;;;20.30;63.80;;;;;;5040535;28;1354;-70
2022/11/04 15:18:25;;;;;;;;;;;20.30;63.20;;;;;;5040495;28;1502;-71